createdAt,value
2023-05-08T00:01:04.700Z,56.09
2023-05-08T00:03:33.936Z,56.20
2023-05-08T00:06:07.100Z,56.03
2023-05-08T00:08:36.557Z,55.77
2023-05-08T00:11:07.268Z,55.63
2023-05-08T00:13:36.254Z,55.76
2023-05-08T00:16:09.685Z,55.94
2023-05-08T00:18:40.916Z,56.15
2023-05-08T00:21:10.137Z,56.53
2023-05-08T00:23:39.531Z,56.88
2023-05-08T00:26:09.135Z,57.04
2023-05-08T00:28:38.125Z,56.99
2023-05-08T00:31:07.372Z,57.23
2023-05-08T00:33:36.168Z,57.17
2023-05-08T00:36:06.511Z,57.38
2023-05-08T00:38:37.037Z,57.09
2023-05-08T00:41:06.124Z,57.19
2023-05-08T00:43:36.141Z,57.03
2023-05-08T00:46:05.869Z,57.00
2023-05-08T00:48:36.917Z,57.54
2023-05-08T00:51:08.949Z,58.22
2023-05-08T00:53:41.555Z,58.38
2023-05-08T00:56:16.112Z,58.53
2023-05-08T00:58:46.323Z,58.59
2023-05-08T01:01:17.802Z,58.77
2023-05-08T01:03:47.978Z,59.07
2023-05-08T01:06:19.349Z,58.66
2023-05-08T01:08:48.799Z,58.47
2023-05-08T01:11:48.364Z,58.37
2023-05-08T01:14:27.163Z,58.41
2023-05-08T01:17:16.554Z,58.58
2023-05-08T01:19:51.320Z,58.96
2023-05-08T01:22:38.771Z,59.12
2023-05-08T01:25:26.647Z,59.27
2023-05-08T01:28:31.307Z,59.77
2023-05-08T01:31:27.281Z,59.55
2023-05-08T01:34:04.160Z,59.08
2023-05-08T01:36:49.065Z,59.31
2023-05-08T01:39:22.309Z,59.20
2023-05-08T01:42:23.817Z,59.65
2023-05-08T01:45:01.773Z,59.37
2023-05-08T01:47:33.702Z,59.57
2023-05-08T01:50:15.350Z,59.60
2023-05-08T01:52:51.204Z,59.86
2023-05-08T01:55:31.580Z,60.49
2023-05-08T01:58:05.168Z,60.90
2023-05-08T02:00:34.382Z,60.86
2023-05-08T02:03:08.738Z,60.98
2023-05-08T02:05:39.636Z,61.10
2023-05-08T02:08:14.466Z,61.13
2023-05-08T02:10:45.926Z,61.10
2023-05-08T02:13:20.688Z,61.09
2023-05-08T02:15:51.839Z,61.29
2023-05-08T02:18:26.912Z,61.47
2023-05-08T02:20:57.903Z,61.57
2023-05-08T02:23:28.439Z,61.41
2023-05-08T02:25:59.279Z,61.46
2023-05-08T02:28:31.659Z,61.85
2023-05-08T02:31:02.412Z,62.07
2023-05-08T02:33:32.388Z,62.21
2023-05-08T02:36:03.115Z,62.31
2023-05-08T02:38:32.520Z,61.92
2023-05-08T02:41:05.945Z,61.76
2023-05-08T02:43:36.968Z,61.45
2023-05-08T02:46:19.910Z,61.21
2023-05-08T02:48:59.468Z,61.22
2023-05-08T02:52:02.909Z,61.24
2023-05-08T02:55:07.073Z,61.80
2023-05-08T02:57:54.346Z,61.70
2023-05-08T03:00:34.009Z,61.79
2023-05-08T03:03:14.205Z,61.80
2023-05-08T03:05:50.626Z,62.12
2023-05-08T03:08:26.608Z,62.22
2023-05-08T03:11:03.115Z,62.11
2023-05-08T03:13:36.684Z,61.99
2023-05-08T03:16:10.118Z,62.31
2023-05-08T03:19:01.895Z,62.72
2023-05-08T03:21:32.780Z,62.67
2023-05-08T03:24:04.574Z,62.60
2023-05-08T03:26:35.034Z,62.94
2023-05-08T03:29:06.803Z,63.24
2023-05-08T03:31:37.252Z,63.19
2023-05-08T03:34:09.504Z,62.88
2023-05-08T03:36:39.056Z,62.52
2023-05-08T03:39:08.449Z,62.47
2023-05-08T03:41:37.725Z,62.63
2023-05-08T03:44:08.460Z,62.62
2023-05-08T03:46:39.700Z,62.43
2023-05-08T03:49:11.460Z,62.16
2023-05-08T03:51:42.231Z,62.21
2023-05-08T03:54:12.050Z,62.55
2023-05-08T03:56:41.818Z,62.06
2023-05-08T03:59:18.276Z,61.72
2023-05-08T04:01:59.671Z,61.44
2023-05-08T04:04:42.865Z,61.67
2023-05-08T04:07:37.011Z,62.09
2023-05-08T04:10:10.029Z,62.30
2023-05-08T04:13:05.332Z,62.30
2023-05-08T04:15:39.993Z,62.11
2023-05-08T04:18:11.876Z,62.21
2023-05-08T04:20:43.634Z,61.82
2023-05-08T04:23:17.915Z,61.57
2023-05-08T04:25:49.340Z,61.34
2023-05-08T04:28:20.440Z,61.35
2023-05-08T04:30:50.430Z,61.14
2023-05-08T04:33:20.572Z,60.83
2023-05-08T04:35:50.843Z,60.86
2023-05-08T04:38:19.858Z,60.71
2023-05-08T04:40:49.432Z,61.03
2023-05-08T04:43:18.367Z,61.04
2023-05-08T04:45:47.815Z,60.88
2023-05-08T04:48:17.553Z,60.73
2023-05-08T04:50:46.925Z,60.69
2023-05-08T04:53:16.255Z,60.86
2023-05-08T04:55:45.248Z,60.42
2023-05-08T04:58:15.395Z,59.86
2023-05-08T05:00:44.187Z,60.26
2023-05-08T05:03:13.864Z,60.43
2023-05-08T05:05:42.973Z,60.61
2023-05-08T05:08:11.894Z,60.05
2023-05-08T05:10:41.207Z,59.90
2023-05-08T05:13:10.618Z,59.50
2023-05-08T05:15:44.242Z,59.09
2023-05-08T05:18:13.422Z,58.86
2023-05-08T05:20:42.645Z,58.66
2023-05-08T05:23:12.304Z,58.60
2023-05-08T05:25:42.595Z,58.67
2023-05-08T05:28:12.055Z,58.86
2023-05-08T05:30:42.108Z,59.02
2023-05-08T05:33:11.068Z,59.16
2023-05-08T05:35:42.022Z,59.07
2023-05-08T05:38:11.478Z,58.85
2023-05-08T05:40:40.403Z,58.80
2023-05-08T05:43:09.805Z,58.70
2023-05-08T05:45:40.648Z,58.85
2023-05-08T05:48:11.542Z,58.65
2023-05-08T05:50:40.775Z,58.33
2023-05-08T05:53:10.561Z,57.82
2023-05-08T05:55:40.000Z,57.64
2023-05-08T05:58:09.350Z,57.48
2023-05-08T06:00:39.183Z,57.47
2023-05-08T06:03:08.368Z,57.50
2023-05-08T06:05:37.968Z,57.32
2023-05-08T06:08:08.921Z,56.84
2023-05-08T06:10:38.100Z,56.46
2023-05-08T06:13:07.071Z,56.21
2023-05-08T06:15:36.278Z,55.78
2023-05-08T06:18:05.347Z,55.82
2023-05-08T06:20:34.686Z,55.66
2023-05-08T06:23:05.066Z,55.52
2023-05-08T06:25:35.492Z,55.35
2023-05-08T06:28:06.857Z,54.97
2023-05-08T06:30:35.806Z,54.95
2023-05-08T06:33:04.987Z,54.86
2023-05-08T06:35:34.488Z,54.57
2023-05-08T06:38:03.467Z,54.45
2023-05-08T06:40:32.987Z,54.33
2023-05-08T06:43:02.839Z,54.02
2023-05-08T06:45:35.563Z,53.90
2023-05-08T06:48:05.861Z,53.70
2023-05-08T06:50:35.728Z,53.26
2023-05-08T06:53:05.974Z,52.90
2023-05-08T06:55:35.668Z,52.57
2023-05-08T06:58:05.900Z,52.33
2023-05-08T07:00:35.922Z,52.34
2023-05-08T07:03:06.375Z,51.66
2023-05-08T07:05:36.966Z,50.83
2023-05-08T07:08:06.111Z,50.40
2023-05-08T07:10:35.380Z,50.05
2023-05-08T07:13:04.446Z,49.28
2023-05-08T07:15:33.309Z,48.93
2023-05-08T07:18:03.818Z,48.12
2023-05-08T07:20:33.342Z,47.59
2023-05-08T07:23:03.278Z,47.21
2023-05-08T07:25:32.682Z,46.69
2023-05-08T07:28:02.217Z,46.10
2023-05-08T07:30:32.215Z,45.67
2023-05-08T07:33:01.298Z,45.50
2023-05-08T07:35:30.557Z,45.03
2023-05-08T07:37:59.361Z,44.62
2023-05-08T07:40:28.191Z,44.33
2023-05-08T07:42:58.229Z,43.97
2023-05-08T07:45:27.327Z,43.49
2023-05-08T07:47:59.020Z,43.51
2023-05-08T07:50:29.280Z,43.82
2023-05-08T07:52:58.801Z,43.26
2023-05-08T07:55:28.047Z,43.17
2023-05-08T07:57:57.617Z,42.97
2023-05-08T08:00:30.186Z,43.39
2023-05-08T08:03:01.270Z,43.39
2023-05-08T08:05:30.653Z,43.49
2023-05-08T08:07:59.644Z,42.94
2023-05-08T08:10:28.555Z,42.60
2023-05-08T08:12:57.630Z,42.38
2023-05-08T08:15:27.107Z,42.88
2023-05-08T08:17:56.744Z,42.79
2023-05-08T08:20:26.131Z,42.47
2023-05-08T08:22:56.461Z,42.38
2023-05-08T08:25:25.358Z,42.31
2023-05-08T08:27:54.905Z,42.27
2023-05-08T08:30:25.650Z,41.94
2023-05-08T08:32:54.846Z,41.77
2023-05-08T08:35:30.270Z,41.68
2023-05-08T08:38:01.358Z,41.71
2023-05-08T08:40:33.464Z,41.72
2023-05-08T08:43:03.487Z,41.37
2023-05-08T08:45:34.616Z,41.13
2023-05-08T08:48:05.911Z,41.06
2023-05-08T08:50:38.225Z,40.71
2023-05-08T08:53:28.243Z,40.36
2023-05-08T08:56:01.869Z,39.84
2023-05-08T08:58:40.107Z,38.91
2023-05-08T09:01:19.665Z,38.65
2023-05-08T09:03:50.602Z,38.80
2023-05-08T09:06:20.529Z,38.67
2023-05-08T09:08:51.533Z,37.83
2023-05-08T09:11:21.886Z,37.89
2023-05-08T09:13:52.538Z,37.94
2023-05-08T09:16:22.619Z,38.07
2023-05-08T09:18:51.985Z,38.21
2023-05-08T09:21:23.385Z,38.55
2023-05-08T09:23:59.275Z,38.10
2023-05-08T09:26:40.316Z,38.41
2023-05-08T09:29:10.435Z,38.31
2023-05-08T09:31:46.311Z,37.96
2023-05-08T09:34:27.412Z,37.96
2023-05-08T09:37:11.477Z,37.98
2023-05-08T09:39:43.554Z,37.94
2023-05-08T09:42:12.504Z,37.84
2023-05-08T09:44:50.169Z,38.18
2023-05-08T09:47:24.482Z,38.43
2023-05-08T09:50:00.439Z,38.26
2023-05-08T09:52:32.148Z,38.10
2023-05-08T09:55:09.630Z,38.00
2023-05-08T09:58:00.100Z,37.92
2023-05-08T10:00:30.598Z,37.47
2023-05-08T10:03:04.723Z,36.92
2023-05-08T10:05:39.533Z,36.35
2023-05-08T10:08:26.241Z,36.32
2023-05-08T10:11:04.100Z,37.00
2023-05-08T10:13:33.268Z,36.53
2023-05-08T10:16:03.130Z,36.11
2023-05-08T10:18:36.734Z,35.50
2023-05-08T10:21:08.934Z,33.96
2023-05-08T10:23:41.116Z,32.38
2023-05-08T10:26:16.134Z,31.94
2023-05-08T10:28:51.801Z,32.81
2023-05-08T10:31:25.987Z,32.74
2023-05-08T10:34:02.419Z,32.77
2023-05-08T10:36:33.025Z,32.56
2023-05-08T10:39:02.807Z,32.58
2023-05-08T10:41:32.753Z,32.91
2023-05-08T10:44:04.441Z,32.56
2023-05-08T10:47:10.914Z,31.18
2023-05-08T10:49:52.910Z,31.07
2023-05-08T10:52:55.038Z,30.67
2023-05-08T10:55:37.811Z,30.39
2023-05-08T10:58:15.722Z,30.28
2023-05-08T11:01:00.362Z,30.64
2023-05-08T11:03:33.057Z,31.08
2023-05-08T11:06:02.784Z,31.17
2023-05-08T11:08:33.053Z,31.08
2023-05-08T11:11:17.103Z,30.74
2023-05-08T11:13:51.319Z,31.12
2023-05-08T11:17:14.329Z,31.02
2023-05-08T11:20:00.157Z,31.63
2023-05-08T11:22:35.863Z,30.37
2023-05-08T11:25:07.880Z,30.16
2023-05-08T11:27:49.614Z,30.67
2023-05-08T11:30:42.108Z,30.93
2023-05-08T11:33:11.967Z,31.51
2023-05-08T11:36:15.152Z,30.98
2023-05-08T11:39:05.822Z,31.19
2023-05-08T11:41:35.223Z,30.84
2023-05-08T11:44:15.839Z,30.12
2023-05-08T11:46:55.906Z,30.03
2023-05-08T11:49:29.572Z,30.08
2023-05-08T11:52:00.326Z,30.17
2023-05-08T11:54:32.503Z,30.35
2023-05-08T11:57:02.418Z,29.61
2023-05-08T11:59:38.138Z,29.36
2023-05-08T12:02:09.711Z,29.25
2023-05-08T12:04:49.103Z,29.38
2023-05-08T12:07:19.754Z,29.55
2023-05-08T12:09:50.431Z,29.83
2023-05-08T12:12:20.542Z,30.35
2023-05-08T12:14:52.973Z,30.08
2023-05-08T12:17:23.211Z,30.44
2023-05-08T12:19:55.891Z,30.14
2023-05-08T12:22:26.206Z,30.61
2023-05-08T12:24:55.223Z,30.96
2023-05-08T12:27:25.868Z,30.56
2023-05-08T12:29:55.662Z,30.45
2023-05-08T12:32:28.873Z,30.11
2023-05-08T12:34:59.754Z,29.92
2023-05-08T12:37:29.375Z,30.37
2023-05-08T12:39:58.749Z,30.18
2023-05-08T12:42:44.718Z,30.42
2023-05-08T12:45:29.143Z,29.97
2023-05-08T12:48:10.271Z,30.26
2023-05-08T12:50:47.140Z,29.66
2023-05-08T12:53:18.319Z,29.92
2023-05-08T12:55:59.493Z,29.42
2023-05-08T12:58:31.337Z,29.64
2023-05-08T13:01:10.567Z,29.91
2023-05-08T13:03:41.617Z,30.29
2023-05-08T13:06:22.339Z,29.72
2023-05-08T13:08:55.734Z,29.67
2023-05-08T13:11:35.167Z,29.50
2023-05-08T13:14:05.042Z,29.22
2023-05-08T13:16:45.353Z,29.44
2023-05-08T13:19:17.430Z,29.85
2023-05-08T13:21:48.964Z,29.73
2023-05-08T13:24:18.904Z,29.11
2023-05-08T13:26:48.058Z,29.09
2023-05-08T13:29:17.753Z,29.15
2023-05-08T13:31:47.792Z,29.12
2023-05-08T13:34:18.307Z,29.25
2023-05-08T13:36:47.305Z,29.55
2023-05-08T13:39:16.814Z,29.77
2023-05-08T13:41:46.755Z,29.74
2023-05-08T13:44:17.661Z,29.86
2023-05-08T13:46:47.987Z,30.57
2023-05-08T13:49:20.909Z,30.64
2023-05-08T13:51:56.470Z,30.34
2023-05-08T13:54:26.707Z,31.13
2023-05-08T13:56:56.350Z,31.68
2023-05-08T13:59:26.504Z,31.94
2023-05-08T14:01:56.282Z,32.28
2023-05-08T14:04:25.988Z,32.65
2023-05-08T14:06:55.739Z,32.87
2023-05-08T14:09:27.419Z,33.35
2023-05-08T14:11:57.296Z,33.62
2023-05-08T14:14:27.780Z,33.46
2023-05-08T14:16:57.430Z,33.45
2023-05-08T14:19:27.857Z,33.98
2023-05-08T14:21:59.917Z,34.76
2023-05-08T14:24:33.077Z,35.53
2023-05-08T14:27:06.680Z,36.28
2023-05-08T14:29:37.479Z,37.01
2023-05-08T14:32:09.891Z,37.91
2023-05-08T14:34:39.892Z,37.88
2023-05-08T14:37:09.844Z,37.72
2023-05-08T14:39:41.091Z,37.66
2023-05-08T14:44:44.367Z,37.24
2023-05-08T14:47:14.285Z,37.63
2023-05-08T14:49:44.536Z,37.58
2023-05-08T14:52:14.690Z,37.93
2023-05-08T14:54:44.127Z,38.19
2023-05-08T14:57:14.492Z,38.53
2023-05-08T15:02:33.705Z,38.89
2023-05-08T15:05:08.134Z,39.18
2023-05-08T15:07:42.157Z,39.39
2023-05-08T15:10:11.770Z,39.41
2023-05-08T15:12:41.253Z,39.42
2023-05-08T15:15:12.446Z,39.83
2023-05-08T15:17:42.694Z,39.65
2023-05-08T15:20:14.357Z,39.75
2023-05-08T15:22:46.015Z,39.57
2023-05-08T15:25:17.612Z,39.21
2023-05-08T15:27:53.649Z,39.36
2023-05-08T15:30:25.378Z,39.59
2023-05-08T15:32:59.309Z,40.21
2023-05-08T15:35:31.246Z,41.95
2023-05-08T15:38:06.247Z,43.07
2023-05-08T15:40:38.339Z,42.37
2023-05-08T15:43:10.004Z,43.80
2023-05-08T15:45:40.950Z,44.57
2023-05-08T15:48:12.358Z,45.40
2023-05-08T15:50:42.439Z,46.11
2023-05-08T15:53:13.388Z,45.72
2023-05-08T15:55:43.488Z,45.36
2023-05-08T15:58:13.715Z,45.68
2023-05-08T16:00:45.454Z,45.97
2023-05-08T16:03:15.384Z,46.27
2023-05-08T16:05:46.252Z,46.34
2023-05-08T16:08:17.084Z,45.77
2023-05-08T16:10:47.848Z,45.67
2023-05-08T16:13:19.863Z,43.12
2023-05-08T16:15:49.565Z,42.09
2023-05-08T16:18:18.836Z,41.03
2023-05-08T16:20:47.758Z,41.12
2023-05-08T16:23:17.248Z,41.59
2023-05-08T16:25:47.966Z,41.84
2023-05-08T16:28:18.572Z,42.24
2023-05-08T16:30:48.792Z,42.11
2023-05-08T16:33:18.084Z,42.69
2023-05-08T16:35:47.686Z,43.04
2023-05-08T16:38:18.756Z,43.48
2023-05-08T16:40:49.244Z,44.11
2023-05-08T16:43:19.121Z,44.13
2023-05-08T16:45:53.394Z,44.22
2023-05-08T16:48:24.075Z,44.32
2023-05-08T16:50:53.965Z,44.62
2023-05-08T16:53:24.578Z,45.00
2023-05-08T16:55:56.672Z,45.34
2023-05-08T16:58:28.284Z,45.53
2023-05-08T17:00:58.159Z,45.93
2023-05-08T17:03:27.844Z,46.15
2023-05-08T17:05:57.506Z,46.35
2023-05-08T17:08:27.929Z,46.34
2023-05-08T17:10:58.274Z,46.52
2023-05-08T17:13:28.805Z,46.83
2023-05-08T17:15:59.182Z,46.84
2023-05-08T17:18:28.936Z,46.82
2023-05-08T17:20:58.878Z,46.96
2023-05-08T17:23:29.007Z,46.93
2023-05-08T17:25:59.866Z,47.12
2023-05-08T17:28:29.196Z,47.28
2023-05-08T17:31:00.216Z,47.47
2023-05-08T17:33:30.954Z,47.71
2023-05-08T17:36:02.714Z,47.95
2023-05-08T17:38:33.071Z,48.18
2023-05-08T17:41:03.109Z,48.43
2023-05-08T17:43:35.827Z,48.77
2023-05-08T17:46:05.502Z,49.07
2023-05-08T17:48:35.596Z,49.26
2023-05-08T17:51:05.519Z,49.34
2023-05-08T17:53:35.198Z,49.15
2023-05-08T17:56:04.668Z,49.16
2023-05-08T17:58:34.863Z,49.29
2023-05-08T18:01:04.087Z,49.21
2023-05-08T18:03:33.726Z,49.27
2023-05-08T18:06:03.023Z,49.46
2023-05-08T18:08:34.324Z,49.67
2023-05-08T18:11:06.528Z,50.11
2023-05-08T18:13:35.893Z,50.53
2023-05-08T18:16:05.691Z,51.04
2023-05-08T18:18:36.828Z,51.83
2023-05-08T18:21:08.734Z,52.20
2023-05-08T18:23:38.640Z,52.19
2023-05-08T18:26:08.474Z,52.57
2023-05-08T18:28:40.471Z,53.30
2023-05-08T18:31:10.498Z,53.88
2023-05-08T18:33:41.888Z,53.75
2023-05-08T18:36:13.180Z,53.63
2023-05-08T18:38:44.497Z,53.82
2023-05-08T18:41:14.993Z,53.61
2023-05-08T18:43:45.666Z,53.76
2023-05-08T18:46:19.111Z,53.87
2023-05-08T18:48:49.519Z,54.21
2023-05-08T18:51:19.811Z,54.53
2023-05-08T18:53:49.490Z,54.90
2023-05-08T18:56:20.184Z,54.94
2023-05-08T18:58:50.182Z,55.00
2023-05-08T19:01:20.921Z,55.05
2023-05-08T19:03:51.307Z,54.95
2023-05-08T19:06:23.046Z,54.76
2023-05-08T19:08:52.806Z,54.76
2023-05-08T19:11:23.532Z,55.17
2023-05-08T19:13:53.027Z,55.50
2023-05-08T19:16:24.015Z,55.75
2023-05-08T19:18:53.752Z,55.63
2023-05-08T19:21:23.767Z,55.53
2023-05-08T19:23:54.527Z,55.81
2023-05-08T19:26:24.624Z,55.89
2023-05-08T19:28:54.621Z,55.97
2023-05-08T19:31:24.343Z,56.72
2023-05-08T19:33:54.408Z,57.26
2023-05-08T19:36:25.944Z,57.22
2023-05-08T19:38:55.885Z,57.27
2023-05-08T19:41:26.292Z,57.60
2023-05-08T19:43:56.404Z,57.89
2023-05-08T19:46:26.237Z,58.19
2023-05-08T19:48:57.235Z,58.15
2023-05-08T19:51:27.245Z,58.02
2023-05-08T19:53:58.343Z,58.23
2023-05-08T19:56:29.355Z,58.34
2023-05-08T19:58:59.750Z,58.84
2023-05-08T20:01:30.710Z,58.81
2023-05-08T20:04:02.822Z,58.64
2023-05-08T20:06:33.783Z,58.97
2023-05-08T20:09:03.820Z,58.92
2023-05-08T20:11:33.398Z,59.12
2023-05-08T20:14:03.256Z,59.12
2023-05-08T20:16:33.092Z,58.87
2023-05-08T20:19:02.664Z,58.88
2023-05-08T20:21:35.033Z,58.86
2023-05-08T20:24:05.772Z,59.19
2023-05-08T20:26:35.105Z,59.49
2023-05-08T20:29:04.877Z,59.25
2023-05-08T20:31:35.985Z,59.49
2023-05-08T20:34:05.163Z,59.61
2023-05-08T20:36:34.850Z,59.87
2023-05-08T20:39:07.683Z,59.96
2023-05-08T20:41:37.039Z,60.11
2023-05-08T20:44:07.127Z,60.65
2023-05-08T20:46:36.801Z,60.87
2023-05-08T20:49:06.509Z,61.38
2023-05-08T20:51:37.208Z,61.44
2023-05-08T20:54:08.522Z,61.87
2023-05-08T20:56:38.203Z,62.19
2023-05-08T20:59:08.903Z,62.43
2023-05-08T21:01:38.262Z,62.64
2023-05-08T21:04:08.842Z,63.13
2023-05-08T21:06:39.058Z,62.98
2023-05-08T21:09:08.453Z,63.19
2023-05-08T21:11:39.099Z,63.45
2023-05-08T21:14:08.781Z,63.89
2023-05-08T21:16:37.864Z,63.76
2023-05-08T21:19:07.594Z,63.95
2023-05-08T21:21:37.445Z,64.38
2023-05-08T21:24:07.381Z,64.59
2023-05-08T21:26:36.320Z,64.95
2023-05-08T21:29:05.909Z,64.95
2023-05-08T21:31:39.570Z,64.85
2023-05-08T21:34:14.787Z,65.18
2023-05-08T21:36:44.322Z,65.27
2023-05-08T21:39:13.595Z,65.37
2023-05-08T21:41:46.955Z,65.41
2023-05-08T21:44:16.408Z,65.21
2023-05-08T21:46:45.777Z,65.32
2023-05-08T21:49:15.358Z,65.45
2023-05-08T21:51:46.055Z,65.33
2023-05-08T21:54:15.343Z,65.44
2023-05-08T21:56:44.029Z,65.76
2023-05-08T21:59:12.719Z,65.66
2023-05-08T22:01:42.143Z,65.50
2023-05-08T22:04:12.002Z,65.34
2023-05-08T22:06:43.826Z,65.30
2023-05-08T22:09:12.680Z,65.47
2023-05-08T22:11:42.521Z,65.13
2023-05-08T22:14:12.369Z,64.99
2023-05-08T22:16:43.074Z,64.99
2023-05-08T22:19:12.311Z,65.31
2023-05-08T22:21:41.397Z,65.52
2023-05-08T22:24:10.205Z,65.50
2023-05-08T22:26:39.002Z,65.50
2023-05-08T22:29:07.951Z,65.46
2023-05-08T22:31:36.825Z,65.68
2023-05-08T22:34:06.363Z,65.50
2023-05-08T22:36:36.410Z,65.32
2023-05-08T22:39:12.705Z,65.48
2023-05-08T22:41:43.023Z,65.70
2023-05-08T22:44:13.055Z,65.86
2023-05-08T22:46:43.114Z,65.81
2023-05-08T22:49:12.354Z,65.74
2023-05-08T22:51:41.290Z,65.69
2023-05-08T22:54:11.107Z,65.86
2023-05-08T22:56:41.125Z,65.67
2023-05-08T22:59:10.243Z,65.51
2023-05-08T23:01:39.501Z,65.52
2023-05-08T23:04:09.490Z,65.78
2023-05-08T23:06:38.784Z,65.88
2023-05-08T23:09:07.633Z,65.84
2023-05-08T23:11:36.640Z,65.55
2023-05-08T23:14:06.241Z,65.88
2023-05-08T23:16:35.254Z,66.02
2023-05-08T23:19:05.802Z,66.00
2023-05-08T23:21:35.192Z,65.84
2023-05-08T23:24:05.447Z,65.66
2023-05-08T23:26:35.206Z,65.92
2023-05-08T23:29:04.161Z,65.87
2023-05-08T23:31:33.410Z,65.60
2023-05-08T23:34:02.119Z,65.57
2023-05-08T23:36:32.462Z,65.71
2023-05-08T23:39:01.177Z,65.67
2023-05-08T23:41:30.170Z,65.60
2023-05-08T23:43:59.281Z,65.53
2023-05-08T23:46:28.283Z,65.37
2023-05-08T23:48:59.148Z,65.56
2023-05-08T23:51:28.266Z,65.67
2023-05-08T23:53:57.525Z,65.66
2023-05-08T23:56:27.463Z,65.39
2023-05-08T23:58:56.418Z,65.51
